createdAt,value
2023-05-22T00:00:41.157Z,9.8
2023-05-22T00:03:40.990Z,8.6
2023-05-22T00:06:40.984Z,8.8
2023-05-22T00:09:40.987Z,10.8
2023-05-22T00:12:40.987Z,8.1
2023-05-22T00:15:40.994Z,8.9
2023-05-22T00:18:40.997Z,7.8
2023-05-22T00:21:40.998Z,7.7
2023-05-22T00:24:41.005Z,7.9
2023-05-22T00:27:41.009Z,7.7
2023-05-22T00:30:41.182Z,8
2023-05-22T00:33:41.026Z,7.2
2023-05-22T00:36:41.032Z,7.2
2023-05-22T00:39:41.042Z,7.7
2023-05-22T00:42:41.056Z,8.3
2023-05-22T00:45:41.050Z,7.5
2023-05-22T00:48:41.049Z,9
2023-05-22T00:51:41.056Z,8
2023-05-22T00:54:41.058Z,6.9
2023-05-22T00:57:41.080Z,7.5
2023-05-22T01:00:41.186Z,8.4
2023-05-22T01:03:41.098Z,8.2
2023-05-22T01:06:41.090Z,7.4
2023-05-22T01:09:41.091Z,7.5
2023-05-22T01:12:41.093Z,7.2
2023-05-22T01:15:41.103Z,7.3
2023-05-22T01:18:41.105Z,8.7
2023-05-22T01:21:41.105Z,8.6
2023-05-22T01:24:41.115Z,7.2
2023-05-22T01:27:41.120Z,7.5
2023-05-22T01:30:41.170Z,7.8
2023-05-22T01:33:41.220Z,7.3
2023-05-22T01:36:41.136Z,7.2
2023-05-22T01:39:41.150Z,7.6
2023-05-22T01:42:41.157Z,11.9
2023-05-22T01:45:41.160Z,7.5
2023-05-22T01:48:41.170Z,8.3
2023-05-22T01:51:41.167Z,7.7
2023-05-22T01:54:41.165Z,8.4
2023-05-22T01:57:41.175Z,8
2023-05-22T02:00:41.254Z,7.7
2023-05-22T02:03:41.212Z,8.3
2023-05-22T02:06:41.179Z,7.8
2023-05-22T02:09:41.191Z,8.3
2023-05-22T02:12:41.196Z,8.2
2023-05-22T02:15:41.238Z,7.5
2023-05-22T02:18:41.216Z,9.2
2023-05-22T02:21:41.218Z,7.2
2023-05-22T02:24:41.229Z,8.2
2023-05-22T02:27:41.221Z,7.7
2023-05-22T02:30:41.316Z,8.9
2023-05-22T02:33:41.221Z,7.9
2023-05-22T02:36:41.229Z,7.7
2023-05-22T02:39:41.239Z,8.6
2023-05-22T02:42:41.235Z,6.8
2023-05-22T02:45:41.225Z,9
2023-05-22T02:48:41.242Z,8
2023-05-22T02:51:41.245Z,8
2023-05-22T02:54:41.249Z,7.3
2023-05-22T02:57:41.264Z,8.2
2023-05-22T03:00:41.440Z,7
2023-05-22T03:03:41.345Z,8.1
2023-05-22T03:06:41.274Z,8.2
2023-05-22T03:09:41.286Z,8.6
2023-05-22T03:12:41.291Z,7.5
2023-05-22T03:15:41.299Z,8.8
2023-05-22T03:18:41.304Z,7.1
2023-05-22T03:21:41.299Z,8.5
2023-05-22T03:24:41.316Z,7.2
2023-05-22T03:27:41.319Z,6.7
2023-05-22T03:30:41.478Z,7.3
2023-05-22T03:33:41.325Z,8
2023-05-22T03:36:41.348Z,8.3
2023-05-22T03:39:41.333Z,6.7
2023-05-22T03:42:41.332Z,7
2023-05-22T03:45:41.356Z,8
2023-05-22T03:48:41.347Z,8.3
2023-05-22T03:51:41.363Z,6.9
2023-05-22T03:54:41.362Z,7.8
2023-05-22T03:57:41.375Z,7.5
2023-05-22T04:00:41.393Z,9.5
2023-05-22T04:03:41.425Z,6.8
2023-05-22T04:06:41.376Z,6.8
2023-05-22T04:09:41.399Z,6.6
2023-05-22T04:12:41.383Z,6.9
2023-05-22T04:15:41.405Z,9.2
2023-05-22T04:18:41.405Z,7.3
2023-05-22T04:21:41.409Z,6.3
2023-05-22T04:24:41.413Z,6.5
2023-05-22T04:27:41.421Z,9.1
2023-05-22T04:30:41.696Z,6.4
2023-05-22T04:33:41.425Z,6.8
2023-05-22T04:36:41.426Z,7.1
2023-05-22T04:39:41.462Z,7.6
2023-05-22T04:42:41.455Z,6.7
2023-05-22T04:45:41.438Z,6.4
2023-05-22T04:48:41.444Z,8.5
2023-05-22T04:51:41.446Z,6.3
2023-05-22T04:54:41.449Z,7.3
2023-05-22T04:57:41.501Z,7.9
2023-05-22T05:00:41.612Z,8.2
2023-05-22T05:03:41.468Z,6.6
2023-05-22T05:06:41.469Z,7.3
2023-05-22T05:09:41.479Z,7.6
2023-05-22T05:12:41.488Z,8
2023-05-22T05:15:41.477Z,7.7
2023-05-22T05:18:41.519Z,7.9
2023-05-22T05:21:41.481Z,7.6
2023-05-22T05:24:41.490Z,9.2
2023-05-22T05:27:41.484Z,6.7
2023-05-22T05:30:41.739Z,6.9
2023-05-22T05:33:41.495Z,7.9
2023-05-22T05:36:41.514Z,7.2
2023-05-22T05:39:41.535Z,9
2023-05-22T05:42:41.516Z,7
2023-05-22T05:45:41.553Z,6.9
2023-05-22T05:48:41.528Z,7
2023-05-22T05:51:41.539Z,6.8
2023-05-22T05:54:41.545Z,6.9
2023-05-22T05:57:41.563Z,6.9
2023-05-22T06:00:41.702Z,6.7
2023-05-22T06:03:41.747Z,7.7
2023-05-22T06:06:41.600Z,9
2023-05-22T06:09:41.563Z,6.5
2023-05-22T06:12:41.574Z,6.6
2023-05-22T06:15:41.575Z,8.8
2023-05-22T06:18:41.587Z,8.9
2023-05-22T06:21:41.579Z,7.6
2023-05-22T06:24:41.594Z,7.8
2023-05-22T06:27:41.602Z,6.3
2023-05-22T06:30:41.633Z,10.8
2023-05-22T06:33:41.654Z,7.5
2023-05-22T06:36:41.624Z,6.8
2023-05-22T06:39:41.618Z,7
2023-05-22T06:42:41.618Z,8
2023-05-22T06:45:41.635Z,7
2023-05-22T06:48:41.627Z,6.6
2023-05-22T06:51:41.627Z,9.3
2023-05-22T06:54:41.632Z,8.1
2023-05-22T06:57:41.635Z,6.3
2023-05-22T07:00:41.813Z,7.4
2023-05-22T07:03:41.659Z,9.4
2023-05-22T07:06:41.798Z,6.8
2023-05-22T07:09:41.664Z,8.2
2023-05-22T07:12:41.656Z,7.7
2023-05-22T07:15:41.665Z,7.3
2023-05-22T07:18:41.665Z,7.2
2023-05-22T07:21:41.674Z,5.3
2023-05-22T07:24:41.674Z,7.2
2023-05-22T07:27:41.689Z,5.2
2023-05-22T07:30:41.809Z,7.9
2023-05-22T07:33:41.701Z,7
2023-05-22T07:36:41.695Z,8.4
2023-05-22T07:39:41.696Z,6.2
2023-05-22T07:42:41.724Z,7.2
2023-05-22T07:45:41.743Z,7.7
2023-05-22T07:48:41.708Z,8
2023-05-22T07:51:41.716Z,6.7
2023-05-22T07:54:42.373Z,6.7
2023-05-22T07:57:41.717Z,7.1
2023-05-22T08:00:41.728Z,7.1
2023-05-22T08:03:41.799Z,8
2023-05-22T08:06:41.736Z,7.5
2023-05-22T08:09:41.728Z,7.3
2023-05-22T08:12:41.735Z,7.7
2023-05-22T08:15:41.743Z,6.8
2023-05-22T08:18:41.752Z,7.2
2023-05-22T08:21:41.748Z,6.8
2023-05-22T08:24:41.758Z,8.1
2023-05-22T08:27:41.764Z,7.2
2023-05-22T08:30:41.757Z,7.6
2023-05-22T08:33:41.767Z,7.3
2023-05-22T08:36:41.769Z,7.3
2023-05-22T08:39:41.780Z,8
2023-05-22T08:42:41.777Z,6.4
2023-05-22T08:45:41.786Z,6.8
2023-05-22T08:48:41.797Z,10.2
2023-05-22T08:51:41.798Z,7.7
2023-05-22T08:54:41.803Z,8.3
2023-05-22T08:57:41.815Z,7.8
2023-05-22T09:00:41.900Z,7.7
2023-05-22T09:03:41.834Z,6.8
2023-05-22T09:06:41.825Z,7.2
2023-05-22T09:09:41.835Z,8.8
2023-05-22T09:12:41.830Z,9.5
2023-05-22T09:15:41.841Z,8.8
2023-05-22T09:18:41.843Z,8.6
2023-05-22T09:21:41.848Z,8.6
2023-05-22T09:24:41.856Z,7.6
2023-05-22T09:27:41.857Z,7.2
2023-05-22T09:30:42.131Z,6.7
2023-05-22T09:33:41.869Z,8.5
2023-05-22T09:36:41.869Z,7.2
2023-05-22T09:39:41.872Z,8
2023-05-22T09:42:41.880Z,7.7
2023-05-22T09:45:41.887Z,8.2
2023-05-22T09:48:41.897Z,7.3
2023-05-22T09:51:41.899Z,6
2023-05-22T09:54:41.898Z,7.1
2023-05-22T09:57:41.956Z,5.9
2023-05-22T10:00:42.075Z,8.2
2023-05-22T10:03:41.916Z,8.2
2023-05-22T10:06:41.946Z,10.6
2023-05-22T10:09:41.930Z,6.7
2023-05-22T10:12:41.942Z,6.8
2023-05-22T10:15:41.926Z,8.3
2023-05-22T10:18:42.008Z,7.8
2023-05-22T10:21:42.011Z,7.7
2023-05-22T10:24:42.083Z,6.7
2023-05-22T10:27:42.125Z,7.4
2023-05-22T10:30:42.427Z,6
2023-05-22T10:33:42.151Z,7
2023-05-22T10:36:42.141Z,10.4
2023-05-22T10:39:42.132Z,7.5
2023-05-22T10:42:42.139Z,6.7
2023-05-22T10:45:43.936Z,6.3
2023-05-22T10:48:42.134Z,6.7
2023-05-22T10:51:42.166Z,7.7
2023-05-22T10:54:42.154Z,5.8
2023-05-22T10:57:42.156Z,8.6
2023-05-22T11:00:42.281Z,9.3
2023-05-22T11:03:42.151Z,6.1
2023-05-22T11:06:42.389Z,7
2023-05-22T11:09:42.147Z,8.5
2023-05-22T11:12:42.177Z,7.5
2023-05-22T11:15:42.154Z,5.6
2023-05-22T11:18:42.166Z,6
2023-05-22T11:21:42.164Z,6.2
2023-05-22T11:24:42.163Z,5.6
2023-05-22T11:27:42.150Z,7.1
2023-05-22T11:30:42.346Z,6.9
2023-05-22T11:33:42.157Z,6.1
2023-05-22T11:36:42.161Z,10.9
2023-05-22T11:39:42.164Z,6.3
2023-05-22T11:42:42.170Z,7.3
2023-05-22T11:45:42.172Z,6.1
2023-05-22T11:48:42.187Z,5.4
2023-05-22T11:51:42.164Z,7.4
2023-05-22T11:54:42.168Z,5.8
2023-05-22T11:57:42.166Z,7.1
2023-05-22T12:00:42.280Z,8.1
2023-05-22T12:03:42.226Z,7.7
2023-05-22T12:06:42.205Z,7.7
2023-05-22T12:09:42.160Z,7.5
2023-05-22T12:12:42.158Z,6
2023-05-22T12:15:42.161Z,6.5
2023-05-22T12:18:42.168Z,8.3
2023-05-22T12:21:42.244Z,6.5
2023-05-22T12:24:42.179Z,6.9
2023-05-22T12:27:42.164Z,6.8
2023-05-22T12:30:42.266Z,5.9
2023-05-22T12:33:42.170Z,6.3
2023-05-22T12:36:42.171Z,6.3
2023-05-22T12:39:42.170Z,7.2
2023-05-22T12:42:42.172Z,7.8
2023-05-22T12:45:42.172Z,6.2
2023-05-22T12:48:42.173Z,6.5
2023-05-22T12:51:42.190Z,7.1
2023-05-22T12:54:42.176Z,5.9
2023-05-22T12:57:42.172Z,6.6
2023-05-22T13:00:42.314Z,7.9
2023-05-22T13:03:42.178Z,6.9
2023-05-22T13:06:42.169Z,8
2023-05-22T13:09:42.174Z,6.7
2023-05-22T13:12:42.182Z,5.7
2023-05-22T13:15:42.365Z,7.3
2023-05-22T13:18:42.184Z,7.2
2023-05-22T13:21:42.185Z,7.9
2023-05-22T13:24:42.192Z,5.9
2023-05-22T13:27:42.202Z,6.5
2023-05-22T13:30:42.231Z,6.7
2023-05-22T13:33:42.212Z,6.8
2023-05-22T13:36:42.197Z,7.3
2023-05-22T13:39:42.218Z,5.8
2023-05-22T13:42:42.209Z,7.7
2023-05-22T13:45:42.356Z,6.1
2023-05-22T13:48:42.213Z,7.3
2023-05-22T13:51:42.221Z,6.6
2023-05-22T13:54:42.219Z,6
2023-05-22T13:57:42.230Z,7.5
2023-05-22T14:00:42.258Z,8.5
2023-05-22T14:03:42.227Z,5.6
2023-05-22T14:06:42.228Z,7.4
2023-05-22T14:09:42.228Z,7.6
2023-05-22T14:12:42.230Z,6.2
2023-05-22T14:15:42.327Z,6.5
2023-05-22T14:18:42.238Z,6.4
2023-05-22T14:21:42.250Z,5.9
2023-05-22T14:24:42.256Z,7.6
2023-05-22T14:27:42.271Z,6.7
2023-05-22T14:30:42.285Z,7.9
2023-05-22T14:33:42.269Z,6.1
2023-05-22T14:36:42.277Z,7
2023-05-22T14:39:42.277Z,6.3
2023-05-22T14:42:42.287Z,7.6
2023-05-22T14:45:42.471Z,5.5
2023-05-22T14:48:42.317Z,6.5
2023-05-22T14:51:42.326Z,7.7
2023-05-22T14:54:42.316Z,6.1
2023-05-22T14:57:42.313Z,6.8
2023-05-22T15:00:42.326Z,5.8
2023-05-22T15:03:42.332Z,6.2
2023-05-22T15:06:42.352Z,8.1
2023-05-22T15:09:42.345Z,8.7
2023-05-22T15:12:42.378Z,5.7
2023-05-22T15:15:42.431Z,6.4
2023-05-22T15:18:42.380Z,7.9
2023-05-22T15:21:42.378Z,7.9
2023-05-22T15:24:42.391Z,8.9
2023-05-22T15:27:42.389Z,6.7
2023-05-22T15:30:42.400Z,7.2
2023-05-22T15:33:42.392Z,6.9
2023-05-22T15:36:42.392Z,8
2023-05-22T15:39:42.396Z,8.2
2023-05-22T15:42:42.417Z,6.3
2023-05-22T15:45:42.619Z,9
2023-05-22T15:48:42.424Z,6
2023-05-22T15:51:42.431Z,8.3
2023-05-22T15:54:42.439Z,6.9
2023-05-22T15:57:42.427Z,6.7
2023-05-22T16:00:42.446Z,7.1
2023-05-22T16:03:42.499Z,8
2023-05-22T16:06:42.460Z,8.1
2023-05-22T16:09:42.476Z,6.2
2023-05-22T16:12:42.470Z,8.1
2023-05-22T16:15:42.648Z,6.5
2023-05-22T16:18:42.501Z,6.8
2023-05-22T16:21:42.483Z,6.3
2023-05-22T16:24:42.497Z,9.3
2023-05-22T16:27:42.494Z,8.2
2023-05-22T16:30:42.509Z,8.4
2023-05-22T16:33:42.506Z,7.4
2023-05-22T16:36:42.514Z,7.4
2023-05-22T16:39:42.506Z,7.7
2023-05-22T16:42:42.518Z,9.4
2023-05-22T16:45:42.580Z,7.4
2023-05-22T16:48:42.518Z,7.8
2023-05-22T16:51:42.542Z,6.4
2023-05-22T16:54:42.530Z,8.5
2023-05-22T16:57:42.549Z,7.1
2023-05-22T17:00:42.588Z,6.1
2023-05-22T17:03:42.664Z,6.4
2023-05-22T17:06:42.568Z,6.8
2023-05-22T17:09:42.577Z,7.2
2023-05-22T17:12:42.582Z,7.1
2023-05-22T17:15:42.640Z,9
2023-05-22T17:18:42.591Z,8.2
2023-05-22T17:21:42.597Z,6.9
2023-05-22T17:24:42.598Z,8.3
2023-05-22T17:27:42.608Z,7.9
2023-05-22T17:30:42.953Z,7.8
2023-05-22T17:33:42.610Z,7.9
2023-05-22T17:36:44.690Z,8.6
2023-05-22T17:39:42.639Z,7.4
2023-05-22T17:42:42.635Z,8.1
2023-05-22T17:45:42.653Z,8.3
2023-05-22T17:48:42.622Z,7
2023-05-22T17:51:42.636Z,8.5
2023-05-22T17:54:42.642Z,7.5
2023-05-22T17:57:42.651Z,6.9
2023-05-22T18:00:42.699Z,8.3
2023-05-22T18:03:42.732Z,8.3
2023-05-22T18:06:42.664Z,7.9
2023-05-22T18:09:42.679Z,7.3
2023-05-22T18:12:42.671Z,7.4
2023-05-22T18:15:42.740Z,12.6
2023-05-22T18:18:42.697Z,7.4
2023-05-22T18:21:42.700Z,7.5
2023-05-22T18:24:42.702Z,9
2023-05-22T18:27:42.695Z,7.5
2023-05-22T18:30:42.752Z,9.6
2023-05-22T18:33:42.715Z,7.6
2023-05-22T18:36:42.704Z,8.8
2023-05-22T18:39:42.723Z,7
2023-05-22T18:42:42.711Z,7.4
2023-05-22T18:45:42.755Z,7.4
2023-05-22T18:48:42.735Z,10.4
2023-05-22T18:51:42.744Z,7.4
2023-05-22T18:54:42.753Z,8.6
2023-05-22T18:57:42.742Z,7.1
2023-05-22T19:00:43.000Z,6.7
2023-05-22T19:03:42.748Z,6.8
2023-05-22T19:06:42.770Z,7.6
2023-05-22T19:09:42.772Z,9
2023-05-22T19:12:42.766Z,15.3
2023-05-22T19:15:42.779Z,11.5
2023-05-22T19:18:42.793Z,9.6
2023-05-22T19:21:42.785Z,13.9
2023-05-22T19:24:42.796Z,13
2023-05-22T19:27:42.798Z,12.3
2023-05-22T19:30:43.184Z,15.2
2023-05-22T19:33:42.824Z,13.4
2023-05-22T19:36:42.805Z,13.2
2023-05-22T19:39:42.820Z,13.4
2023-05-22T19:42:42.825Z,12.8
2023-05-22T19:45:42.836Z,12.1
2023-05-22T19:48:42.833Z,13.3
2023-05-22T19:51:42.861Z,12.8
2023-05-22T19:54:42.841Z,12.6
2023-05-22T19:57:42.847Z,15.1
2023-05-22T20:00:43.177Z,14.5
2023-05-22T20:03:42.928Z,15.8
2023-05-22T20:06:42.866Z,15.7
2023-05-22T20:09:42.874Z,21.8
2023-05-22T20:12:42.883Z,15.6
2023-05-22T20:15:42.937Z,17.1
2023-05-22T20:18:42.885Z,17.2
2023-05-22T20:21:42.889Z,16.4
2023-05-22T20:24:42.900Z,15.6
2023-05-22T20:27:42.916Z,18.2
2023-05-22T20:30:42.916Z,16.1
2023-05-22T20:33:42.907Z,13.8
2023-05-22T20:36:42.915Z,14.8
2023-05-22T20:39:42.903Z,15.8
2023-05-22T20:42:43.026Z,15.4
2023-05-22T20:45:43.054Z,16.9
2023-05-22T20:48:42.925Z,17.3
2023-05-22T20:51:42.924Z,15.7
2023-05-22T20:54:42.937Z,17.2
2023-05-22T20:57:42.934Z,16.5
2023-05-22T21:00:42.948Z,17.1
2023-05-22T21:03:42.941Z,17.5
2023-05-22T21:06:42.954Z,18.4
2023-05-22T21:09:42.945Z,19.8
2023-05-22T21:12:42.959Z,18.5
2023-05-22T21:15:42.964Z,18.1
2023-05-22T21:18:42.972Z,17.1
2023-05-22T21:21:42.969Z,17.3
2023-05-22T21:24:42.977Z,18.9
2023-05-22T21:27:42.980Z,17.3
2023-05-22T21:30:42.990Z,19
2023-05-22T21:33:42.994Z,19
2023-05-22T21:36:42.994Z,19.7
2023-05-22T21:39:42.990Z,19.3
2023-05-22T21:42:46.867Z,20.2
2023-05-22T21:45:43.015Z,20.5
2023-05-22T21:48:43.008Z,20.9
2023-05-22T21:51:43.011Z,20.4
2023-05-22T21:54:43.030Z,20.7
2023-05-22T21:57:43.040Z,19.7
2023-05-22T22:00:43.063Z,20.1
2023-05-22T22:03:43.105Z,19.7
2023-05-22T22:06:43.050Z,20.4
2023-05-22T22:09:43.053Z,21.1
2023-05-22T22:12:43.053Z,20.6
2023-05-22T22:15:43.060Z,21.8
2023-05-22T22:18:43.075Z,20.9
2023-05-22T22:21:43.062Z,21.6
2023-05-22T22:24:43.073Z,22.1
2023-05-22T22:27:43.073Z,20.1
2023-05-22T22:30:43.090Z,20.3
2023-05-22T22:33:43.098Z,21.3
2023-05-22T22:36:43.101Z,21.4
2023-05-22T22:39:43.115Z,22.2
2023-05-22T22:42:43.108Z,21.5
2023-05-22T22:45:43.285Z,21.3
2023-05-22T22:48:43.126Z,22.1
2023-05-22T22:51:43.138Z,21
2023-05-22T22:54:44.609Z,25
2023-05-22T22:57:43.143Z,22.9
2023-05-22T23:00:43.144Z,21.8
2023-05-22T23:03:43.151Z,22.1
2023-05-22T23:06:43.150Z,22.3
2023-05-22T23:09:43.158Z,24
2023-05-22T23:12:43.157Z,23.7
2023-05-22T23:15:43.436Z,25.4
2023-05-22T23:18:43.167Z,24.2
2023-05-22T23:21:43.175Z,25.8
2023-05-22T23:24:43.180Z,26.1
2023-05-22T23:27:43.187Z,25.9
2023-05-22T23:30:43.178Z,25.8
2023-05-22T23:33:43.194Z,26.1
2023-05-22T23:36:43.194Z,27.6
2023-05-22T23:39:43.202Z,25.8
2023-05-22T23:42:43.221Z,27.6
2023-05-22T23:45:43.204Z,26
2023-05-22T23:48:43.213Z,25.2
2023-05-22T23:51:43.210Z,24.5
2023-05-22T23:54:43.227Z,23.3
2023-05-22T23:57:43.222Z,24.9
